This is the latest recevied weather packets stored in our database for station/object KI7CSN-13. If no packets are shown the sender has not sent any weather packets the latest 10 day(s).
| Time | Temp. | Humidity | Pressure | Rain* | Wind** | Luminosity | Snow |
|---|---|---|---|---|---|---|---|
| 1777848165 | 27.22° C | 17% | 978.9 hPa | 0 mm | - | - | - |
| 1777847865 | 26.67° C | 16% | 979 hPa | 0 mm | - | - | - |
| 1777847565 | 27.22° C | 16% | 978.9 hPa | 0 mm | - | - | - |
| 1777847265 | 28.33° C | 16% | 978.9 hPa | 0 mm | - | - | - |
| 1777846965 | 27.22° C | 18% | 979 hPa | 0 mm | - | - | - |
| 1777846665 | 27.22° C | 18% | 979.1 hPa | 0 mm | - | - | - |
| 1777846365 | 27.22° C | 18% | 979 hPa | 0 mm | - | - | - |
| 1777846065 | 27.78° C | 17% | 979.1 hPa | 0 mm | - | - | - |
| 1777845765 | 26.67° C | 18% | 979.3 hPa | 0 mm | - | - | - |
| 1777845465 | 26.11° C | 21% | 979.3 hPa | 0 mm | - | - | - |
| 1777845165 | 27.78° C | 20% | 979.4 hPa | 0 mm | - | - | - |
| 1777844865 | 27.22° C | 20% | 979.6 hPa | 0 mm | - | - | - |
| 1777844565 | 27.22° C | 22% | 979.4 hPa | 0 mm | - | - | - |
| 1777844265 | 28.33° C | 20% | 979.4 hPa | 0 mm | - | - | - |
| 1777843965 | 26.67° C | 22% | 979.7 hPa | 0 mm | - | - | - |
| 1777843665 | 27.22° C | 22% | 979.9 hPa | 0 mm | - | - | - |
| 1777843365 | 27.22° C | 22% | 979.8 hPa | 0 mm | - | - | - |
| 1777843065 | 27.78° C | 20% | 979.7 hPa | 0 mm | - | - | - |
| 1777842765 | 27.78° C | 20% | 979.8 hPa | 0 mm | - | - | - |
| 1777842465 | 27.22° C | 22% | 980 hPa | 0 mm | - | - | - |
| 1777842166 | 27.78° C | 22% | 979.9 hPa | 0 mm | - | - | - |
| 1777841866 | 26.67° C | 21% | 980.2 hPa | 0 mm | - | - | - |
| 1777841566 | 26.11° C | 23% | 980.2 hPa | 0 mm | - | - | - |
| 1777841266 | 25.56° C | 22% | 980.2 hPa | 0 mm | - | - | - |
| 1777840965 | 25° C | 23% | 980.4 hPa | 0 mm | - | - | - |
* Rain latest hour (hover to see other rain measurements)
** Current wind speed in m/s (hover to see current wind gust speed)